createdAt,value
2018-07-09T00:01:37.967Z,94.80
2018-07-09T00:04:07.275Z,95.20
2018-07-09T00:06:36.353Z,95.40
2018-07-09T00:09:05.827Z,93.90
2018-07-09T00:11:35.178Z,94.20
2018-07-09T00:14:04.472Z,94.80
2018-07-09T00:16:33.654Z,94.70
2018-07-09T00:19:03.123Z,94.00
2018-07-09T00:21:32.511Z,94.20
2018-07-09T00:24:01.743Z,93.70
2018-07-09T00:26:31.114Z,94.70
2018-07-09T00:29:00.336Z,94.60
2018-07-09T00:31:29.531Z,95.30
2018-07-09T00:33:59.189Z,95.70
2018-07-09T00:38:57.089Z,94.00
2018-07-09T00:41:26.369Z,94.00
2018-07-09T00:43:55.683Z,92.30
2018-07-09T00:46:24.914Z,92.90
2018-07-09T00:48:54.671Z,93.00
2018-07-09T00:51:23.891Z,93.40
2018-07-09T00:53:53.225Z,94.30
2018-07-09T00:56:22.570Z,93.70
2018-07-09T00:58:51.781Z,93.10
2018-07-09T01:01:21.136Z,93.50
2018-07-09T01:03:50.445Z,93.40
2018-07-09T01:06:19.680Z,94.20
2018-07-09T01:08:48.776Z,95.10
2018-07-09T01:13:52.369Z,96.10
2018-07-09T01:16:21.587Z,96.60
2018-07-09T01:18:50.773Z,95.90
2018-07-09T01:21:20.469Z,97.40
2018-07-09T01:23:49.741Z,98.00
2018-07-09T01:26:18.911Z,99.20
2018-07-09T01:28:48.285Z,99.50
2018-07-09T01:31:17.534Z,99.40
2018-07-09T01:33:47.065Z,99.90
2018-07-09T01:36:16.218Z,99.90
2018-07-09T01:38:45.483Z,99.90
2018-07-09T01:41:14.599Z,99.90
2018-07-09T01:48:41.573Z,99.90
2018-07-09T01:53:39.720Z,99.90
2018-07-09T01:56:08.955Z,99.90
2018-07-09T02:01:07.687Z,99.90
2018-07-09T02:03:36.835Z,99.90
2018-07-09T02:06:06.601Z,99.90
2018-07-09T02:08:35.705Z,99.90
2018-07-09T02:11:04.904Z,99.90
2018-07-09T02:13:34.775Z,99.90
2018-07-09T02:16:03.942Z,99.90
2018-07-09T02:18:33.161Z,99.00
2018-07-09T02:21:02.454Z,99.30
2018-07-09T02:23:31.665Z,96.10
2018-07-09T02:26:00.799Z,93.50
2018-07-09T02:28:30.064Z,93.00
2018-07-09T02:33:28.058Z,89.20
2018-07-09T02:35:57.347Z,88.90
2018-07-09T02:40:55.199Z,87.50
2018-07-09T02:43:24.524Z,85.50
2018-07-09T02:45:53.658Z,86.30
2018-07-09T02:48:22.878Z,85.80
2018-07-09T02:50:52.376Z,85.90
2018-07-09T02:53:21.486Z,86.50
2018-07-09T02:55:50.662Z,87.10
2018-07-09T02:58:19.826Z,85.00
2018-07-09T03:03:17.801Z,84.90
2018-07-09T03:05:47.155Z,84.40
2018-07-09T03:08:16.323Z,84.00
2018-07-09T03:10:45.470Z,84.00
2018-07-09T03:13:15.070Z,83.90
2018-07-09T03:15:44.460Z,84.20
2018-07-09T03:18:14.178Z,84.50
2018-07-09T03:20:43.528Z,83.40
2018-07-09T03:23:12.617Z,83.40
2018-07-09T03:25:41.701Z,83.10
2018-07-09T03:28:11.310Z,84.20
2018-07-09T03:30:40.397Z,86.40
2018-07-09T03:33:09.457Z,85.10
2018-07-09T03:35:39.070Z,85.40
2018-07-09T03:38:08.170Z,84.10
2018-07-09T03:40:37.331Z,84.20
2018-07-09T03:45:36.306Z,84.10
2018-07-09T03:50:34.626Z,84.00
2018-07-09T03:53:03.858Z,84.80
2018-07-09T03:55:33.058Z,87.60
2018-07-09T03:58:02.662Z,87.10
2018-07-09T04:00:31.762Z,86.80
2018-07-09T04:03:00.950Z,86.00
2018-07-09T04:05:30.888Z,85.60
2018-07-09T04:08:00.019Z,86.60
2018-07-09T04:10:29.216Z,87.70
2018-07-09T04:15:27.628Z,85.30
2018-07-09T04:17:57.060Z,85.30
2018-07-09T04:20:26.435Z,89.00
2018-07-09T04:22:55.553Z,89.70
2018-07-09T04:25:24.803Z,89.00
2018-07-09T04:27:54.397Z,87.60
2018-07-09T04:30:23.562Z,87.00
2018-07-09T04:32:52.776Z,86.80
2018-07-09T04:35:22.008Z,86.00
2018-07-09T04:37:51.127Z,84.50
2018-07-09T04:40:21.060Z,83.90
2018-07-09T04:42:50.494Z,84.50
2018-07-09T04:45:19.690Z,83.80
2018-07-09T04:47:48.826Z,83.60
2018-07-09T04:50:18.325Z,85.50
2018-07-09T04:52:47.427Z,83.40
2018-07-09T04:55:16.560Z,83.50
2018-07-09T04:57:45.852Z,82.60
2018-07-09T05:00:14.971Z,83.30
2018-07-09T05:02:44.081Z,82.70
2018-07-09T05:05:13.459Z,83.50
2018-07-09T05:07:42.547Z,82.80
2018-07-09T05:10:11.625Z,84.50
2018-07-09T05:12:40.806Z,81.90
2018-07-09T05:17:38.569Z,83.10
2018-07-09T05:20:07.961Z,83.10
2018-07-09T05:22:37.071Z,85.30
2018-07-09T05:27:35.051Z,90.00
2018-07-09T05:32:33.142Z,90.60
2018-07-09T05:35:02.417Z,90.20
2018-07-09T05:37:31.522Z,85.80
2018-07-09T05:40:00.740Z,88.10
2018-07-09T05:42:29.988Z,85.20
2018-07-09T05:44:59.092Z,84.30
2018-07-09T05:47:28.309Z,84.30
2018-07-09T05:49:57.897Z,85.80
2018-07-09T05:52:27.098Z,83.70
2018-07-09T05:54:57.678Z,85.40
2018-07-09T05:57:27.028Z,84.50
2018-07-09T05:59:56.128Z,85.20
2018-07-09T06:02:25.366Z,83.60
2018-07-09T06:04:54.500Z,82.90
2018-07-09T06:07:23.610Z,83.10
2018-07-09T06:09:53.106Z,82.70
2018-07-09T06:12:22.254Z,82.10
2018-07-09T06:17:20.144Z,80.90
2018-07-09T06:19:49.792Z,81.60
2018-07-09T06:22:18.864Z,83.00
2018-07-09T06:24:48.364Z,82.90
2018-07-09T06:27:17.490Z,83.80
2018-07-09T06:29:46.706Z,81.40
2018-07-09T06:32:16.560Z,80.40
2018-07-09T06:37:15.650Z,82.10
2018-07-09T06:39:44.804Z,79.60
2018-07-09T06:42:13.966Z,78.10
2018-07-09T06:44:43.274Z,78.40
2018-07-09T06:47:12.424Z,78.00
2018-07-09T06:49:41.534Z,78.10
2018-07-09T06:52:11.544Z,78.50
2018-07-09T06:54:40.650Z,78.30
2018-07-09T06:57:09.770Z,76.80
2018-07-09T06:59:39.004Z,80.40
2018-07-09T07:02:08.140Z,77.40
2018-07-09T07:07:06.124Z,77.30
2018-07-09T07:14:32.691Z,79.10
2018-07-09T07:17:01.823Z,75.00
2018-07-09T07:19:30.925Z,75.30
2018-07-09T07:22:00.189Z,74.40
2018-07-09T07:24:29.373Z,75.50
2018-07-09T07:26:58.454Z,76.50
2018-07-09T07:29:27.801Z,74.50
2018-07-09T07:31:56.919Z,74.80
2018-07-09T07:34:26.603Z,74.00
2018-07-09T07:36:56.344Z,72.10
2018-07-09T07:39:25.509Z,75.20
2018-07-09T07:46:52.375Z,75.00
2018-07-09T07:49:22.103Z,74.60
2018-07-09T07:51:51.300Z,74.90
2018-07-09T07:54:20.439Z,74.90
2018-07-09T07:56:49.545Z,75.60
2018-07-09T07:59:18.895Z,74.50
2018-07-09T08:01:49.296Z,75.60
2018-07-09T08:04:18.809Z,76.00
2018-07-09T08:06:47.924Z,76.70
2018-07-09T08:09:17.113Z,75.90
2018-07-09T08:11:49.258Z,75.10
2018-07-09T08:14:15.542Z,74.50
2018-07-09T08:16:44.655Z,73.50
2018-07-09T08:19:13.904Z,73.00
2018-07-09T08:21:43.808Z,75.10
2018-07-09T08:24:12.934Z,72.70
2018-07-09T08:26:42.565Z,74.20
2018-07-09T08:29:11.702Z,72.70
2018-07-09T08:31:40.854Z,71.30
2018-07-09T08:34:10.094Z,71.90
2018-07-09T08:36:39.849Z,71.50
2018-07-09T08:39:09.278Z,71.00
2018-07-09T08:41:38.640Z,70.40
2018-07-09T08:44:07.776Z,71.30
2018-07-09T08:46:36.956Z,71.60
2018-07-09T08:49:06.275Z,71.60
2018-07-09T08:51:35.376Z,72.50
2018-07-09T08:54:04.601Z,70.90
2018-07-09T08:56:34.078Z,72.10
2018-07-09T08:59:04.068Z,71.10
2018-07-09T09:01:33.543Z,69.00
2018-07-09T09:04:02.689Z,71.70
2018-07-09T09:06:31.826Z,73.70
2018-07-09T09:09:01.241Z,73.20
2018-07-09T09:11:30.320Z,72.50
2018-07-09T09:16:29.163Z,68.90
2018-07-09T09:21:26.876Z,71.60
2018-07-09T09:23:56.399Z,70.90
2018-07-09T09:26:25.496Z,70.40
2018-07-09T09:28:54.601Z,68.90
2018-07-09T09:31:23.969Z,70.90
2018-07-09T09:33:53.414Z,71.20
2018-07-09T09:36:22.555Z,69.40
2018-07-09T09:38:52.463Z,69.50
2018-07-09T09:41:21.770Z,68.30
2018-07-09T09:43:50.903Z,70.70
2018-07-09T09:46:20.161Z,72.50
2018-07-09T09:48:49.268Z,71.60
2018-07-09T09:51:18.404Z,70.60
2018-07-09T09:56:16.341Z,67.40
2018-07-09T09:58:45.451Z,70.50
2018-07-09T10:01:14.640Z,72.20
2018-07-09T10:03:43.744Z,65.70
2018-07-09T10:06:13.829Z,68.00
2018-07-09T10:11:11.734Z,66.70
2018-07-09T10:13:40.844Z,69.00
2018-07-09T10:16:10.079Z,68.80
2018-07-09T10:18:39.236Z,66.70
2018-07-09T10:21:08.398Z,71.30
2018-07-09T10:23:37.708Z,67.30
2018-07-09T10:26:06.845Z,67.10
2018-07-09T10:28:36.525Z,68.30
2018-07-09T10:31:06.042Z,67.10
2018-07-09T10:33:35.332Z,65.70
2018-07-09T10:36:04.627Z,65.60
2018-07-09T10:38:33.929Z,65.50
2018-07-09T10:41:03.276Z,62.90
2018-07-09T10:43:32.380Z,64.50
2018-07-09T10:46:01.543Z,63.80
2018-07-09T10:48:30.664Z,62.80
2018-07-09T10:50:59.761Z,68.50
2018-07-09T10:53:29.197Z,62.40
2018-07-09T10:55:58.351Z,65.20
2018-07-09T10:58:27.507Z,65.30
2018-07-09T11:00:56.659Z,65.30
2018-07-09T11:03:26.693Z,63.40
2018-07-09T11:05:55.885Z,64.60
2018-07-09T11:08:25.423Z,59.80
2018-07-09T11:10:54.570Z,61.40
2018-07-09T11:13:23.716Z,61.60
2018-07-09T11:15:52.979Z,58.60
2018-07-09T11:18:22.117Z,60.80
2018-07-09T11:20:51.301Z,58.50
2018-07-09T11:23:20.619Z,59.00
2018-07-09T11:25:49.751Z,57.90
2018-07-09T11:28:18.869Z,58.20
2018-07-09T11:30:48.101Z,58.10
2018-07-09T11:33:17.265Z,62.20
2018-07-09T11:35:46.409Z,58.80
2018-07-09T11:38:15.837Z,58.40
2018-07-09T11:40:44.994Z,56.40
2018-07-09T11:43:14.295Z,55.30
2018-07-09T11:45:43.602Z,54.40
2018-07-09T11:48:12.702Z,55.50
2018-07-09T11:50:42.135Z,51.60
2018-07-09T11:53:11.396Z,54.40
2018-07-09T11:55:41.473Z,54.90
2018-07-09T11:58:10.621Z,56.30
2018-07-09T12:00:39.919Z,55.60
2018-07-09T12:03:09.079Z,55.30
2018-07-09T12:05:38.200Z,52.30
2018-07-09T12:08:07.527Z,51.50
2018-07-09T12:10:37.945Z,51.40
2018-07-09T12:13:07.133Z,52.10
2018-07-09T12:15:36.575Z,52.80
2018-07-09T12:18:05.749Z,52.10
2018-07-09T12:20:34.879Z,51.50
2018-07-09T12:23:04.116Z,52.10
2018-07-09T12:25:33.227Z,51.40
2018-07-09T12:28:02.337Z,53.10
2018-07-09T12:30:31.620Z,52.30
2018-07-09T12:33:01.415Z,50.90
2018-07-09T12:35:30.541Z,50.80
2018-07-09T12:37:59.931Z,52.40
2018-07-09T12:40:29.008Z,49.10
2018-07-09T12:42:58.273Z,49.60
2018-07-09T12:45:27.977Z,47.90
2018-07-09T12:47:57.592Z,48.00
2018-07-09T12:50:26.772Z,47.00
2018-07-09T12:52:55.982Z,46.00
2018-07-09T12:55:25.207Z,47.70
2018-07-09T12:57:54.311Z,48.00
2018-07-09T13:00:23.426Z,48.00
2018-07-09T13:02:52.692Z,51.80
2018-07-09T13:05:21.766Z,47.20
2018-07-09T13:07:50.901Z,48.70
2018-07-09T13:10:20.185Z,47.90
2018-07-09T13:12:49.321Z,47.90
2018-07-09T13:17:47.521Z,46.80
2018-07-09T13:20:17.477Z,47.10
2018-07-09T13:22:46.619Z,46.40
2018-07-09T13:25:16.164Z,50.40
2018-07-09T13:27:45.270Z,45.60
2018-07-09T13:30:14.686Z,48.50
2018-07-09T13:32:43.966Z,49.40
2018-07-09T13:35:13.226Z,51.10
2018-07-09T13:40:11.490Z,50.00
2018-07-09T13:42:40.665Z,52.00
2018-07-09T13:45:09.804Z,50.00
2018-07-09T13:47:39.437Z,49.60
2018-07-09T13:52:37.376Z,51.20
2018-07-09T13:55:07.066Z,51.20
2018-07-09T13:57:36.305Z,49.20
2018-07-09T14:02:34.737Z,52.50
2018-07-09T14:05:04.010Z,50.30
2018-07-09T14:07:33.137Z,50.80
2018-07-09T14:10:02.626Z,50.50
2018-07-09T14:12:31.724Z,51.50
2018-07-09T14:15:00.845Z,52.40
2018-07-09T14:17:31.029Z,55.00
2018-07-09T14:20:25.352Z,52.50
2018-07-09T14:22:55.102Z,54.20
2018-07-09T14:25:24.256Z,51.00
2018-07-09T14:27:53.384Z,51.80
2018-07-09T14:30:22.793Z,51.70
2018-07-09T14:32:51.925Z,53.10
2018-07-09T14:35:21.051Z,53.80
2018-07-09T14:37:50.643Z,53.70
2018-07-09T14:40:19.790Z,51.10
2018-07-09T14:42:48.935Z,51.20
2018-07-09T14:45:18.338Z,50.80
2018-07-09T14:47:47.680Z,52.80
2018-07-09T14:50:16.831Z,50.60
2018-07-09T14:52:46.099Z,51.00
2018-07-09T14:57:44.699Z,50.60
2018-07-09T15:02:42.656Z,52.30
2018-07-09T15:05:11.775Z,52.20
2018-07-09T15:07:40.995Z,52.10
2018-07-09T15:10:10.178Z,51.60
2018-07-09T15:12:39.348Z,49.30
2018-07-09T15:15:08.652Z,50.60
2018-07-09T15:17:37.774Z,49.70
2018-07-09T15:20:07.115Z,50.80
2018-07-09T15:22:36.814Z,50.60
2018-07-09T15:25:06.022Z,49.30
2018-07-09T15:27:35.161Z,49.90
2018-07-09T15:30:04.488Z,49.60
2018-07-09T15:32:33.596Z,52.10
2018-07-09T15:35:02.689Z,51.20
2018-07-09T15:37:31.997Z,50.90
2018-07-09T15:40:01.128Z,52.70
2018-07-09T15:42:30.263Z,52.00
2018-07-09T15:44:59.507Z,50.30
2018-07-09T15:47:28.632Z,50.00
2018-07-09T15:49:57.921Z,51.80
2018-07-09T15:52:27.109Z,51.70
2018-07-09T15:54:56.242Z,51.60
2018-07-09T15:59:54.286Z,51.40
2018-07-09T16:02:23.361Z,52.00
2018-07-09T16:04:52.479Z,52.30
2018-07-09T16:07:21.722Z,53.00
2018-07-09T16:14:48.387Z,51.70
2018-07-09T16:19:46.237Z,51.70
2018-07-09T16:22:15.500Z,53.90
2018-07-09T16:24:44.689Z,54.00
2018-07-09T16:27:13.806Z,54.30
2018-07-09T16:29:43.235Z,54.10
2018-07-09T16:32:12.362Z,52.20
2018-07-09T16:37:11.510Z,53.70
2018-07-09T16:39:40.867Z,56.10
2018-07-09T16:42:09.951Z,55.70
2018-07-09T16:44:39.226Z,53.30
2018-07-09T16:47:08.362Z,53.30
2018-07-09T16:52:06.878Z,54.20
2018-07-09T16:54:36.117Z,53.20
2018-07-09T16:57:05.585Z,55.50
2018-07-09T16:59:36.683Z,55.40
2018-07-09T17:04:39.351Z,56.10
2018-07-09T17:07:19.743Z,56.30
2018-07-09T17:09:51.553Z,57.40
2018-07-09T17:12:20.741Z,57.80
2018-07-09T17:17:18.659Z,57.80
2018-07-09T17:19:47.742Z,57.60
2018-07-09T17:22:16.837Z,57.50
2018-07-09T17:37:41.634Z,61.00
2018-07-09T17:40:10.750Z,57.60
2018-07-09T17:42:39.814Z,58.10
2018-07-09T17:45:09.152Z,58.50
2018-07-09T17:47:38.326Z,60.10
2018-07-09T17:50:07.579Z,58.00
2018-07-09T17:52:36.949Z,59.80
2018-07-09T17:55:06.098Z,58.90
2018-07-09T17:57:35.222Z,59.70
2018-07-09T18:00:04.498Z,62.00
2018-07-09T18:02:33.615Z,60.90
2018-07-09T18:05:02.930Z,61.50
2018-07-09T18:07:32.294Z,61.70
2018-07-09T18:10:01.410Z,61.50
2018-07-09T18:12:30.510Z,59.60
2018-07-09T18:14:59.755Z,61.20
2018-07-09T18:17:28.973Z,61.20
2018-07-09T18:19:58.460Z,61.30
2018-07-09T18:22:27.565Z,63.50
2018-07-09T18:24:56.738Z,65.20
2018-07-09T18:27:25.976Z,64.50
2018-07-09T18:29:55.252Z,66.00
2018-07-09T18:32:24.360Z,66.90
2018-07-09T18:34:53.638Z,66.30
2018-07-09T18:37:22.788Z,64.90
2018-07-09T18:39:51.854Z,65.30
2018-07-09T18:42:21.272Z,65.30
2018-07-09T18:44:50.410Z,67.50
2018-07-09T18:47:19.492Z,66.20
2018-07-09T18:49:48.966Z,67.90
2018-07-09T18:52:18.134Z,66.60
2018-07-09T18:54:47.527Z,66.60
2018-07-09T18:59:45.414Z,67.10
2018-07-09T19:02:14.518Z,67.70
2018-07-09T19:04:44.228Z,67.80
2018-07-09T19:07:29.640Z,68.30
2018-07-09T19:09:59.115Z,68.50
2018-07-09T19:12:34.015Z,69.30
2018-07-09T19:15:05.000Z,69.30
2018-07-09T19:18:12.520Z,70.10
2018-07-09T19:21:23.730Z,70.40
2018-07-09T19:23:52.038Z,71.60
2018-07-09T19:26:20.162Z,71.60
2018-07-09T19:28:48.080Z,70.10
2018-07-09T19:31:16.322Z,71.90
2018-07-09T19:33:44.258Z,70.70
2018-07-09T19:36:12.144Z,71.70
2018-07-09T19:41:09.011Z,71.00
2018-07-09T19:43:37.268Z,72.50
2018-07-09T19:46:05.274Z,74.00
2018-07-09T19:48:33.102Z,71.80
2018-07-09T19:51:01.004Z,74.60
2018-07-09T19:53:28.937Z,72.90
2018-07-09T19:55:57.003Z,72.80
2018-07-09T19:58:24.915Z,72.20
2018-07-09T20:00:52.828Z,72.80
2018-07-09T20:03:20.737Z,73.00
2018-07-09T20:05:48.678Z,73.00
2018-07-09T20:08:16.586Z,73.00
2018-07-09T20:10:49.772Z,71.80
2018-07-09T20:13:22.993Z,73.00
2018-07-09T20:15:56.043Z,73.10
2018-07-09T20:20:52.238Z,73.40
2018-07-09T20:23:20.071Z,73.30
2018-07-09T20:25:47.970Z,72.70
2018-07-09T20:28:15.903Z,73.10
2018-07-09T20:30:43.837Z,73.10
2018-07-09T20:33:11.750Z,73.00
2018-07-09T20:35:39.672Z,74.90
2018-07-09T20:38:07.600Z,75.30
2018-07-09T20:40:35.512Z,76.40
2018-07-09T20:45:31.526Z,77.00
2018-07-09T20:47:59.434Z,79.80
2018-07-09T20:52:55.452Z,81.80
2018-07-09T20:55:23.368Z,81.60
2018-07-09T20:57:51.446Z,82.10
2018-07-09T21:00:19.359Z,82.80
2018-07-09T21:02:47.277Z,83.50
2018-07-09T21:05:15.200Z,83.60
2018-07-09T21:07:43.100Z,84.80
2018-07-09T21:10:11.008Z,83.80
2018-07-09T21:12:44.208Z,85.40
2018-07-09T21:15:12.217Z,86.80
2018-07-09T21:20:08.125Z,86.60
2018-07-09T21:22:36.034Z,87.10
2018-07-09T21:25:03.993Z,88.50
2018-07-09T21:27:31.945Z,89.40
2018-07-09T21:32:28.079Z,88.30
2018-07-09T21:37:24.178Z,88.40
2018-07-09T21:39:52.051Z,90.00
2018-07-09T21:42:19.957Z,90.40
2018-07-09T21:44:47.862Z,90.30
2018-07-09T21:47:15.802Z,91.50
2018-07-09T21:49:43.684Z,91.70
2018-07-09T21:52:11.594Z,92.10
2018-07-09T21:54:39.494Z,92.00
2018-07-09T22:02:03.821Z,92.90
2018-07-09T22:04:31.721Z,92.60
2018-07-09T22:06:59.667Z,92.30
2018-07-09T22:09:27.567Z,90.20
2018-07-09T22:11:55.453Z,88.30
2018-07-09T22:14:23.378Z,87.20
2018-07-09T22:16:51.277Z,86.40
2018-07-09T22:19:19.198Z,84.70
2018-07-09T22:21:47.103Z,84.10
2018-07-09T22:24:15.011Z,85.90
2018-07-09T22:26:43.328Z,86.80
2018-07-09T22:29:11.225Z,84.30
2018-07-09T22:31:40.509Z,87.10
2018-07-09T22:34:09.600Z,88.80
2018-07-09T22:36:38.704Z,91.20
2018-07-09T22:39:07.894Z,92.90
2018-07-09T22:41:36.976Z,94.40
2018-07-09T22:44:18.356Z,94.50
2018-07-09T22:46:47.999Z,95.50
2018-07-09T22:49:17.266Z,96.90
2018-07-09T22:51:47.209Z,97.70
2018-07-09T22:54:17.112Z,99.00
2018-07-09T22:56:46.372Z,99.80
2018-07-09T22:59:15.476Z,98.90
2018-07-09T23:01:44.574Z,98.10
2018-07-09T23:04:14.105Z,96.90
2018-07-09T23:06:43.185Z,96.20
2018-07-09T23:10:21.108Z,94.90
2018-07-09T23:13:13.719Z,93.80
2018-07-09T23:15:54.425Z,95.50
2018-07-09T23:18:35.063Z,95.00
2018-07-09T23:22:19.837Z,91.20
2018-07-09T23:24:47.717Z,92.70
2018-07-09T23:27:15.813Z,93.00
2018-07-09T23:29:43.741Z,90.90
2018-07-09T23:32:11.629Z,90.10
2018-07-09T23:34:39.530Z,92.30
2018-07-09T23:37:07.931Z,92.00
2018-07-09T23:42:03.982Z,93.90
2018-07-09T23:44:31.817Z,96.20
2018-07-09T23:46:59.752Z,97.70
2018-07-09T23:49:27.693Z,98.70
2018-07-09T23:51:55.791Z,99.10
2018-07-09T23:54:23.705Z,99.50
2018-07-09T23:59:37.530Z,98.10
